Time;durP1;ratioP1;P1;durP2;ratioP2;P2;SDS_P1;SDS_P2;PMS_P1;PMS_P2;Temp;Humidity;BMP_temperature;BMP_pressure;BME280_temperature;BME280_humidity;BME280_pressure;Samples;Min_cycle;Max_cycle;Signal;HPM_P1;HPM_P2
2022/04/04 00:00:48;;;;;;;7.88;3.95;;;1.40;99.90;;;;;;5053620;28;20052;-64
2022/04/04 00:03:14;;;;;;;7.30;5.00;;;1.40;99.90;;;;;;5056365;28;20071;-64
2022/04/04 00:05:40;;;;;;;8.40;5.70;;;1.50;99.90;;;;;;5057137;28;20527;-65
2022/04/04 00:08:06;;;;;;;6.22;4.38;;;1.60;99.90;;;;;;5057411;28;20021;-65
2022/04/04 00:10:32;;;;;;;6.70;4.28;;;1.60;99.90;;;;;;5056807;28;20033;-65
2022/04/04 00:12:58;;;;;;;6.72;4.47;;;1.60;99.90;;;;;;5056939;28;20495;-65
2022/04/04 00:15:23;;;;;;;7.82;4.50;;;1.60;99.90;;;;;;5056745;28;20032;-64
2022/04/04 00:17:50;;;;;;;8.87;4.10;;;1.50;99.90;;;;;;5056918;28;20032;-65
2022/04/04 00:20:16;;;;;;;6.53;4.10;;;1.60;99.90;;;;;;5057247;28;20028;-65
2022/04/04 00:22:42;;;;;;;6.18;4.20;;;1.70;99.90;;;;;;5056833;28;20029;-65
2022/04/04 00:25:08;;;;;;;7.82;4.22;;;1.60;99.90;;;;;;5056732;28;20032;-63
2022/04/04 00:27:34;;;;;;;6.03;4.10;;;1.50;99.90;;;;;;5056591;28;20037;-66
2022/04/04 00:30:00;;;;;;;7.68;4.00;;;1.60;99.90;;;;;;5056696;28;20427;-65
2022/04/04 00:32:26;;;;;;;5.65;3.88;;;1.70;99.90;;;;;;5038427;28;20036;-65
2022/04/04 00:34:52;;;;;;;7.83;5.00;;;1.80;99.90;;;;;;5056915;28;20375;-65
2022/04/04 00:37:18;;;;;;;7.00;4.10;;;1.70;99.90;;;;;;5056771;28;20256;-64
2022/04/04 00:39:43;;;;;;;6.37;3.70;;;1.60;99.90;;;;;;5056517;28;20021;-65
2022/04/04 00:42:09;;;;;;;7.80;4.20;;;1.60;99.90;;;;;;5056790;28;20017;-65
2022/04/04 00:44:34;;;;;;;10.17;4.90;;;1.40;99.90;;;;;;5056183;28;20021;-65
2022/04/04 00:47:01;;;;;;;6.67;4.00;;;1.30;99.90;;;;;;5056200;28;20064;-64
2022/04/04 00:49:26;;;;;;;;;;;1.40;99.90;;;;;;5038579;28;20060;-66
2022/04/04 00:51:52;;;;;;;7.90;3.88;;;1.30;99.90;;;;;;5038071;28;20315;-65
2022/04/04 00:54:19;;;;;;;8.40;4.30;;;1.20;99.90;;;;;;5056347;28;20033;-64
2022/04/04 00:56:46;;;;;;;7.45;4.43;;;1.10;99.90;;;;;;5056648;28;20044;-65
2022/04/04 00:59:16;;;;;;;8.52;4.13;;;1.10;99.90;;;;;;5056184;28;20102;-65
2022/04/04 01:01:42;;;;;;;6.05;4.03;;;1.30;99.90;;;;;;5055860;28;20102;-64
2022/04/04 01:04:08;;;;;;;6.77;4.00;;;1.30;99.90;;;;;;5055996;28;20364;-64
2022/04/04 01:06:35;;;;;;;6.28;4.30;;;1.50;99.90;;;;;;5055786;28;20021;-65
2022/04/04 01:09:03;;;;;;;6.47;4.00;;;1.30;99.90;;;;;;5056163;28;20037;-66
2022/04/04 01:11:29;;;;;;;6.50;4.38;;;1.30;99.90;;;;;;5055648;28;20159;-66
2022/04/04 01:13:54;;;;;;;7.20;4.45;;;1.30;99.90;;;;;;5054573;28;20388;-65
2022/04/04 01:16:20;;;;;;;7.00;4.87;;;1.10;99.90;;;;;;5055948;28;20044;-65
2022/04/04 01:18:45;;;;;;;7.67;4.93;;;1.00;99.90;;;;;;5055935;28;20451;-64
2022/04/04 01:21:11;;;;;;;7.47;4.43;;;1.00;99.90;;;;;;5056491;28;20032;-64
2022/04/04 01:23:42;;;;;;;7.45;4.55;;;0.90;99.90;;;;;;5039086;28;20043;-65
2022/04/04 01:26:09;;;;;;;6.45;4.10;;;0.80;99.90;;;;;;5056333;28;20487;-64
2022/04/04 01:28:35;;;;;;;8.60;4.57;;;0.80;99.90;;;;;;5055647;28;20025;-64
2022/04/04 01:31:01;;;;;;;6.97;4.50;;;0.80;99.90;;;;;;5058559;28;20044;-64
2022/04/04 01:33:27;;;;;;;6.43;4.27;;;0.80;99.90;;;;;;5058117;28;20029;-65
2022/04/04 01:35:55;;;;;;;6.47;4.50;;;0.80;99.90;;;;;;5057064;28;20025;-64
2022/04/04 01:38:21;;;;;;;7.45;4.32;;;0.70;99.90;;;;;;5055528;28;20363;-64
2022/04/04 01:40:47;;;;;;;7.70;4.53;;;0.80;99.90;;;;;;5055694;28;20017;-65
2022/04/04 01:43:12;;;;;;;7.05;4.25;;;0.70;99.90;;;;;;5055270;28;20104;-64
2022/04/04 01:48:22;;;;;;;10.10;4.80;;;0.70;99.90;;;;;;5055580;28;20162;-64
2022/04/04 01:50:48;;;;;;;6.17;4.03;;;0.60;99.90;;;;;;5037204;28;20148;-64
2022/04/04 01:53:25;;;;;;;7.63;4.27;;;0.60;99.90;;;;;;5055151;28;20029;-64
2022/04/04 01:55:52;;;;;;;5.82;4.00;;;0.60;99.90;;;;;;5037065;28;20036;-64
2022/04/04 01:58:18;;;;;;;8.02;3.80;;;0.60;99.90;;;;;;5055011;28;20066;-64
2022/04/04 02:00:44;;;;;;;9.13;4.63;;;0.60;99.90;;;;;;5054875;28;20025;-65
2022/04/04 02:03:10;;;;;;;5.95;4.10;;;0.60;99.90;;;;;;5054950;28;20060;-64
2022/04/04 02:05:36;;;;;;;6.32;3.90;;;0.50;99.90;;;;;;5038082;28;20033;-63
2022/04/04 02:08:02;;;;;;;8.38;4.30;;;0.50;99.90;;;;;;5058009;28;20032;-64
2022/04/04 02:10:28;;;;;;;9.32;5.00;;;0.50;99.90;;;;;;5056859;28;20036;-64
2022/04/04 02:12:54;;;;;;;6.90;4.27;;;0.50;99.90;;;;;;5054509;28;20037;-64
2022/04/04 02:15:20;;;;;;;8.93;4.45;;;0.40;99.90;;;;;;5054545;28;20078;-63
2022/04/04 02:17:45;;;;;;;6.30;3.67;;;0.40;99.90;;;;;;5054363;28;20116;-65
2022/04/04 02:20:11;;;;;;;7.87;4.30;;;0.40;99.90;;;;;;5054310;28;20029;-65
2022/04/04 02:22:37;;;;;;;7.23;3.90;;;0.40;99.90;;;;;;5054165;28;20425;-64
2022/04/04 02:25:03;;;;;;;6.82;4.50;;;0.30;99.90;;;;;;5053808;28;20044;-64
2022/04/04 02:27:29;;;;;;;;;;;0.30;99.90;;;;;;5054817;28;20427;-65
2022/04/04 02:29:55;;;;;;;7.88;4.28;;;0.30;99.90;;;;;;5054026;28;19904;-65
2022/04/04 02:32:21;;;;;;;7.45;3.78;;;0.20;99.90;;;;;;5053925;28;20116;-64
2022/04/04 02:34:46;;;;;;;8.00;4.37;;;0.20;99.90;;;;;;5054453;28;20476;-64
2022/04/04 02:37:14;;;;;;;8.05;3.83;;;0.20;99.90;;;;;;5036013;28;20115;-64
2022/04/04 02:39:40;;;;;;;5.93;3.47;;;0.20;99.90;;;;;;5054130;28;20422;-64
2022/04/04 02:42:06;;;;;;;7.68;4.60;;;0.20;99.90;;;;;;5035951;28;20124;-64
2022/04/04 02:44:31;;;;;;;7.43;4.30;;;0.10;99.90;;;;;;5053633;28;20108;-64
2022/04/04 02:46:57;;;;;;;7.90;4.10;;;0.20;99.90;;;;;;5035823;28;20029;-64
2022/04/04 02:49:23;;;;;;;7.07;3.87;;;0.20;99.90;;;;;;5054111;28;20025;-64
2022/04/04 02:51:49;;;;;;;12.10;4.40;;;0.30;99.90;;;;;;5054128;28;20031;-64
2022/04/04 02:54:15;;;;;;;11.15;4.13;;;0.30;99.90;;;;;;5053778;28;20025;-63
2022/04/04 02:56:41;;;;;;;5.73;3.73;;;0.30;99.90;;;;;;5053944;28;20111;-64
2022/04/04 02:59:08;;;;;;;7.22;4.28;;;0.20;99.90;;;;;;5053737;28;20021;-64
2022/04/04 03:01:34;;;;;;;8.85;4.97;;;0.20;99.90;;;;;;5053900;28;20049;-64
2022/04/04 03:04:00;;;;;;;7.25;4.13;;;0.10;99.90;;;;;;5053812;28;20037;-64
2022/04/04 03:06:26;;;;;;;6.35;4.10;;;0.10;99.90;;;;;;5053679;28;20052;-64
2022/04/04 03:08:52;;;;;;;5.80;3.75;;;0.00;99.90;;;;;;5054088;28;20459;-64
2022/04/04 03:11:18;;;;;;;6.73;4.20;;;0.00;99.90;;;;;;5054070;28;20025;-65
2022/04/04 03:13:44;;;;;;;;;;;0.00;99.90;;;;;;5037220;28;20028;-64
2022/04/04 03:16:09;;;;;;;7.15;4.25;;;0.00;99.90;;;;;;5054002;28;20347;-64
2022/04/04 03:18:35;;;;;;;6.53;4.03;;;-0.10;99.90;;;;;;5053993;28;20025;-64
2022/04/04 03:21:03;;;;;;;7.03;4.40;;;-0.10;99.90;;;;;;5053607;28;20036;-65
2022/04/04 03:23:29;;;;;;;8.27;4.68;;;-0.10;99.90;;;;;;5053599;28;20441;-64
2022/04/04 03:25:55;;;;;;;6.50;4.32;;;-0.10;99.90;;;;;;5035880;28;20116;-64
2022/04/04 03:28:21;;;;;;;9.05;5.20;;;0.10;99.90;;;;;;5054052;28;20068;-64
2022/04/04 03:30:48;;;;;;;7.68;4.05;;;0.10;99.90;;;;;;5036419;28;20025;-64
2022/04/04 03:33:14;;;;;;;6.25;3.72;;;0.10;99.90;;;;;;5057659;28;20029;-66
2022/04/04 03:35:40;;;;;;;;;;;0.10;99.90;;;;;;5057442;28;20498;-65
2022/04/04 03:38:07;;;;;;;7.07;3.78;;;0.10;99.90;;;;;;5055594;28;19948;-64
2022/04/04 03:40:33;;;;;;;6.82;4.30;;;0.10;99.90;;;;;;5053957;28;20028;-64
2022/04/04 03:43:00;;;;;;;4.93;3.10;;;0.00;99.90;;;;;;5036408;28;20025;-64
2022/04/04 03:45:27;;;;;;;8.18;4.80;;;0.40;99.90;;;;;;5054489;28;20104;-64
2022/04/04 03:47:53;;;;;;;5.38;3.90;;;0.50;99.90;;;;;;5053877;28;20025;-64
2022/04/04 03:50:20;;;;;;;5.57;3.58;;;0.50;99.90;;;;;;5053506;28;20136;-64
2022/04/04 03:52:47;;;;;;;10.73;4.13;;;0.40;99.90;;;;;;5053202;28;20037;-64
2022/04/04 03:55:13;;;;;;;6.97;3.95;;;0.20;99.90;;;;;;5035498;28;20372;-65
2022/04/04 03:57:40;;;;;;;6.30;4.20;;;0.30;99.90;;;;;;5074777;23;20446;-66
2022/04/04 04:00:07;;;;;;;7.50;4.53;;;0.20;99.90;;;;;;5053440;28;20024;-65
2022/04/04 04:02:33;;;;;;;;;;;0.10;99.90;;;;;;5035715;28;20029;-67
2022/04/04 04:04:59;;;;;;;9.75;4.32;;;0.00;99.90;;;;;;5036292;28;19948;-67
2022/04/04 04:07:25;;;;;;;12.57;6.82;;;-0.10;99.90;;;;;;5053070;28;20021;-66
2022/04/04 04:09:54;;;;;;;8.90;5.20;;;0.00;99.90;;;;;;5053704;28;20056;-66
2022/04/04 04:12:20;;;;;;;6.25;4.38;;;-0.10;99.90;;;;;;5053045;28;20024;-66
2022/04/04 04:14:51;;;;;;;9.03;5.33;;;-0.20;99.90;;;;;;5053287;28;20021;-66
2022/04/04 04:17:21;;;;;;;9.32;4.80;;;-0.20;99.90;;;;;;5035433;28;20264;-66
2022/04/04 04:22:30;;;;;;;11.38;5.65;;;-0.30;99.90;;;;;;5053368;28;20032;-66
2022/04/04 04:24:57;;;;;;;12.65;7.28;;;-0.30;99.90;;;;;;5052875;28;20025;-66
2022/04/04 04:27:23;;;;;;;9.50;5.03;;;-0.40;99.90;;;;;;5052545;28;20069;-66
2022/04/04 04:29:48;;;;;;;6.87;4.07;;;-0.40;99.90;;;;;;5053175;28;20071;-68
2022/04/04 04:32:14;;;;;;;9.07;4.83;;;-0.40;99.90;;;;;;5052628;28;20033;-67
2022/04/04 04:34:40;;;;;;;7.07;4.60;;;-0.40;99.90;;;;;;5035122;28;20021;-67
2022/04/04 04:37:05;;;;;;;7.97;4.22;;;-0.40;99.90;;;;;;5052831;28;20458;-67
2022/04/04 04:39:31;;;;;;;6.50;4.67;;;-0.40;99.90;;;;;;5053398;28;20411;-67
2022/04/04 04:41:57;;;;;;;8.27;5.05;;;-0.40;99.90;;;;;;5053309;28;20029;-67
2022/04/04 04:44:23;;;;;;;7.10;4.63;;;-0.40;99.90;;;;;;5052662;28;20111;-67
2022/04/04 04:46:49;;;;;;;8.63;4.82;;;-0.30;99.90;;;;;;5052726;28;20036;-66
2022/04/04 04:49:16;;;;;;;7.88;4.68;;;-0.30;99.90;;;;;;5056499;28;20028;-67
2022/04/04 04:51:42;;;;;;;9.05;4.63;;;-0.30;99.90;;;;;;5056397;28;20160;-67
2022/04/04 04:54:08;;;;;;;8.38;4.78;;;-0.30;99.90;;;;;;5039017;28;20454;-65
2022/04/04 04:56:35;;;;;;;7.07;4.43;;;-0.40;99.90;;;;;;5056624;28;20044;-65
2022/04/04 04:59:02;;;;;;;10.02;5.70;;;-0.40;99.90;;;;;;5056546;28;20017;-65
2022/04/04 05:01:28;;;;;;;8.55;5.45;;;-0.40;99.90;;;;;;5038919;28;20017;-65
2022/04/04 05:03:54;;;;;;;7.57;4.60;;;-0.40;99.90;;;;;;5056667;28;20035;-64
2022/04/04 05:06:19;;;;;;;8.13;5.00;;;-0.50;99.90;;;;;;5057012;28;20457;-64
2022/04/04 05:08:45;;;;;;;8.53;5.47;;;-0.60;99.90;;;;;;5040480;28;20021;-66
2022/04/04 05:11:11;;;;;;;8.45;5.13;;;-0.60;99.90;;;;;;5040295;28;20104;-65
2022/04/04 05:13:36;;;;;;;10.10;5.73;;;-0.60;99.90;;;;;;5056491;28;20116;-65
2022/04/04 05:16:07;;;;;;;12.17;6.40;;;-0.60;99.90;;;;;;5056195;28;20036;-65
2022/04/04 05:18:32;;;;;;;11.30;6.32;;;-0.60;99.90;;;;;;5056449;28;20021;-65
2022/04/04 05:20:58;;;;;;;11.10;6.63;;;-0.60;99.90;;;;;;5057100;28;20020;-65
2022/04/04 05:23:23;;;;;;;10.80;6.30;;;-0.60;99.90;;;;;;5038616;28;20081;-66
2022/04/04 05:25:49;;;;;;;11.13;6.77;;;-0.60;99.90;;;;;;5051248;28;20057;-65
2022/04/04 05:28:15;;;;;;;10.23;6.23;;;-0.50;99.90;;;;;;5058773;28;20048;-66
2022/04/04 05:30:41;;;;;;;9.87;6.83;;;-0.50;99.90;;;;;;5057966;28;20483;-66
2022/04/04 05:33:09;;;;;;;11.75;7.03;;;-0.50;99.90;;;;;;5056049;28;20108;-66
2022/04/04 05:35:35;;;;;;;13.65;6.93;;;-0.40;99.90;;;;;;5056092;28;20048;-67
2022/04/04 05:38:01;;;;;;;12.48;7.15;;;-0.40;99.90;;;;;;5056172;28;20104;-65
2022/04/04 05:40:27;;;;;;;13.63;7.22;;;-0.40;99.90;;;;;;5037883;28;20060;-65
2022/04/04 05:42:54;;;;;;;9.85;6.80;;;-0.40;99.90;;;;;;5055383;28;20033;-65
2022/04/04 05:45:20;;;;;;;12.65;7.03;;;-0.40;99.90;;;;;;5055495;28;20029;-65
2022/04/04 05:47:45;;;;;;;12.05;6.50;;;-0.30;99.90;;;;;;5055854;28;20529;-65
2022/04/04 05:50:11;;;;;;;12.43;6.87;;;-0.30;99.90;;;;;;5039145;28;20036;-65
2022/04/04 05:52:37;;;;;;;12.18;6.88;;;-0.30;99.90;;;;;;5038781;28;20379;-65
2022/04/04 05:55:04;;;;;;;11.65;6.47;;;-0.20;99.90;;;;;;5055297;28;20070;-65
2022/04/04 05:57:34;;;;;;;10.55;6.82;;;-0.10;99.90;;;;;;5055119;28;20036;-65
2022/04/04 06:00:00;;;;;;;11.82;7.25;;;-0.10;99.90;;;;;;5054409;28;20025;-65
2022/04/04 06:02:29;;;;;;;12.77;7.15;;;-0.10;99.90;;;;;;5055174;28;20110;-65
2022/04/04 06:04:56;;;;;;;14.55;6.35;;;0.00;99.90;;;;;;5037092;28;20028;-65
2022/04/04 06:07:21;;;;;;;11.30;7.22;;;0.00;99.90;;;;;;5054832;28;20036;-65
2022/04/04 06:09:47;;;;;;;12.63;7.10;;;0.10;99.90;;;;;;5055010;28;20021;-66
2022/04/04 06:12:13;;;;;;;19.85;7.28;;;0.10;99.90;;;;;;5036826;28;20025;-65
2022/04/04 06:14:39;;;;;;;13.70;6.87;;;0.10;99.90;;;;;;5054736;28;20053;-65
2022/04/04 06:17:05;;;;;;;19.07;10.03;;;0.20;99.90;;;;;;5037296;28;20059;-65
2022/04/04 06:19:34;;;;;;;;;;;0.20;99.90;;;;;;5055271;28;20031;-65
2022/04/04 06:22:04;;;;;;;11.07;7.45;;;0.20;99.90;;;;;;5054756;28;20314;-65
2022/04/04 06:24:31;;;;;;;13.60;7.82;;;0.30;99.90;;;;;;5055205;28;20379;-65
2022/04/04 06:27:00;;;;;;;14.45;7.57;;;0.30;99.90;;;;;;5055360;28;20025;-66
2022/04/04 06:29:27;;;;;;;15.43;6.65;;;0.30;99.90;;;;;;5054871;28;20024;-66
2022/04/04 06:31:53;;;;;;;10.88;7.03;;;0.50;99.90;;;;;;5054990;28;20025;-65
2022/04/04 06:34:20;;;;;;;12.60;7.28;;;0.60;99.90;;;;;;5037602;28;20447;-65
2022/04/04 06:36:46;;;;;;;;;;;0.50;99.90;;;;;;5054823;28;20033;-66
2022/04/04 06:39:12;;;;;;;12.88;7.55;;;0.60;99.90;;;;;;5055064;28;20341;-67
2022/04/04 06:41:38;;;;;;;13.07;6.50;;;0.60;99.90;;;;;;5036590;28;20025;-66
2022/04/04 06:44:05;;;;;;;10.40;6.80;;;0.70;99.90;;;;;;5054840;28;20032;-66
2022/04/04 06:46:31;;;;;;;11.55;6.63;;;0.90;99.90;;;;;;5054710;28;20479;-66
2022/04/04 06:48:57;;;;;;;11.23;6.35;;;0.90;99.90;;;;;;5036906;28;20394;-66
2022/04/04 06:51:22;;;;;;;15.27;7.07;;;0.80;99.90;;;;;;5036200;28;20112;-66
2022/04/04 06:53:48;;;;;;;12.40;6.23;;;0.90;99.90;;;;;;5054799;28;20309;-66
2022/04/04 06:56:14;;;;;;;10.33;6.10;;;1.00;99.90;;;;;;5054470;28;20108;-66
2022/04/04 06:58:40;;;;;;;14.13;7.03;;;1.00;99.90;;;;;;5053770;28;20059;-66
2022/04/04 07:01:07;;;;;;;9.37;6.00;;;1.10;99.90;;;;;;5037215;28;20546;-66
2022/04/04 07:03:33;;;;;;;10.25;5.72;;;1.20;99.90;;;;;;5054536;28;20035;-66
2022/04/04 07:05:59;;;;;;;9.30;5.50;;;1.20;99.90;;;;;;5036306;28;20107;-66
2022/04/04 07:08:24;;;;;;;11.70;5.88;;;1.30;99.90;;;;;;5036098;28;20491;-66
2022/04/04 07:10:51;;;;;;;12.87;5.87;;;1.40;99.90;;;;;;5054149;28;20070;-66
2022/04/04 07:13:17;;;;;;;10.57;5.55;;;1.40;99.90;;;;;;5035880;28;20021;-66
2022/04/04 07:15:43;;;;;;;9.85;5.55;;;1.50;99.90;;;;;;5054603;28;20025;-66
2022/04/04 07:18:09;;;;;;;10.13;6.20;;;1.50;99.90;;;;;;5036734;28;20110;-66
2022/04/04 07:20:35;;;;;;;9.70;6.10;;;1.50;99.90;;;;;;5054514;28;20167;-66
2022/04/04 07:23:01;;;;;;;11.20;6.90;;;1.50;99.90;;;;;;5035940;28;20096;-66
2022/04/04 07:25:28;;;;;;;14.93;7.27;;;1.60;99.90;;;;;;5036455;28;20556;-66
2022/04/04 07:27:54;;;;;;;12.68;6.25;;;1.60;99.90;;;;;;5036844;28;20051;-65
2022/04/04 07:30:23;;;;;;;14.32;5.95;;;1.70;99.90;;;;;;5054498;28;20040;-66
2022/04/04 07:32:50;;;;;;;13.70;8.13;;;1.80;99.90;;;;;;5053451;28;20052;-66
2022/04/04 07:35:16;;;;;;;9.13;5.72;;;1.80;99.90;;;;;;5053643;28;20029;-66
2022/04/04 07:37:43;;;;;;;10.32;5.78;;;1.90;99.90;;;;;;5053449;28;20044;-66
2022/04/04 07:40:11;;;;;;;10.07;6.13;;;2.00;99.90;;;;;;5035157;28;20035;-66
2022/04/04 07:42:38;;;;;;;11.02;6.40;;;2.10;99.90;;;;;;5053592;28;20025;-67
2022/04/04 07:45:05;;;;;;;12.20;6.38;;;2.20;99.90;;;;;;5053667;28;20394;-64
2022/04/04 07:47:31;;;;;;;10.70;6.50;;;2.30;99.90;;;;;;5053842;28;20029;-66
2022/04/04 07:49:56;;;;;;;10.73;6.77;;;2.50;99.90;;;;;;5041473;28;20025;-66
2022/04/04 07:52:22;;;;;;;11.33;6.87;;;2.50;99.90;;;;;;5054552;28;20528;-66
2022/04/04 07:54:48;;;;;;;10.48;6.57;;;2.60;99.90;;;;;;5053952;28;20067;-67
2022/04/04 07:57:15;;;;;;;13.37;6.87;;;2.60;99.90;;;;;;5053784;28;20033;-66
2022/04/04 07:59:41;;;;;;;13.45;6.55;;;2.70;99.90;;;;;;5052957;28;20013;-66
2022/04/04 08:02:07;;;;;;;10.02;6.63;;;2.70;99.90;;;;;;5034918;28;20040;-66
2022/04/04 08:04:32;;;;;;;13.43;6.60;;;2.80;99.90;;;;;;5036490;28;20073;-66
2022/04/04 08:06:58;;;;;;;10.50;6.03;;;2.90;99.90;;;;;;5053512;28;20032;-66
2022/04/04 08:09:25;;;;;;;9.75;5.57;;;3.00;99.90;;;;;;5035741;28;20343;-66
2022/04/04 08:11:52;;;;;;;9.77;6.07;;;3.00;99.90;;;;;;5053166;28;20032;-66
2022/04/04 08:14:18;;;;;;;8.60;5.35;;;3.10;99.90;;;;;;5052981;28;20104;-66
2022/04/04 08:16:44;;;;;;;10.70;6.10;;;3.10;99.90;;;;;;5035135;28;20053;-65
2022/04/04 08:19:09;;;;;;;9.48;5.28;;;3.30;99.90;;;;;;5052820;28;20401;-65
2022/04/04 08:21:35;;;;;;;8.17;5.53;;;3.30;99.90;;;;;;5034776;28;20364;-66
2022/04/04 08:24:00;;;;;;;9.47;5.33;;;3.40;99.90;;;;;;5055504;28;20017;-65
2022/04/04 08:26:26;;;;;;;10.07;6.10;;;3.40;99.90;;;;;;5038818;28;20017;-65
2022/04/04 08:28:52;;;;;;;10.37;5.37;;;3.50;99.90;;;;;;5056794;28;20033;-65
2022/04/04 08:31:17;;;;;;;8.70;5.13;;;3.60;99.90;;;;;;5038875;28;20025;-65
2022/04/04 08:33:43;;;;;;;12.00;5.67;;;3.70;99.90;;;;;;5056622;28;20033;-65
2022/04/04 08:36:09;;;;;;;8.93;5.33;;;3.90;99.90;;;;;;5039068;28;20075;-65
2022/04/04 08:38:37;;;;;;;8.40;5.00;;;4.00;99.90;;;;;;5057161;28;20031;-65
2022/04/04 08:41:05;;;;;;;9.77;5.15;;;4.10;99.90;;;;;;5057449;28;20033;-66
2022/04/04 08:43:43;;;;;;;9.38;4.78;;;4.20;99.90;;;;;;5056878;28;20025;-66
2022/04/04 08:46:09;;;;;;;9.35;5.20;;;4.40;99.90;;;;;;5056694;28;20036;-66
2022/04/04 08:48:37;;;;;;;7.88;5.43;;;4.50;99.90;;;;;;5056314;28;20028;-66
2022/04/04 08:51:07;;;;;;;7.40;5.00;;;5.00;99.90;;;;;;5056482;28;20025;-66
2022/04/04 08:53:37;;;;;;;6.22;4.30;;;6.80;97.60;;;;;;5056656;28;20450;-66
2022/04/04 08:56:04;;;;;;;5.72;3.88;;;9.30;90.80;;;;;;5056140;28;20488;-65
2022/04/04 08:58:30;;;;;;;8.38;3.90;;;11.10;77.30;;;;;;5038500;28;20040;-65
2022/04/04 09:00:56;;;;;;;;;;;11.90;73.60;;;;;;5056395;28;20067;-66
2022/04/04 09:03:26;;;;;;;7.28;3.88;;;13.10;69.50;;;;;;5055782;28;20375;-66
2022/04/04 09:05:54;;;;;;;6.80;4.70;;;14.20;65.90;;;;;;5055891;28;20024;-66
2022/04/04 09:08:20;;;;;;;5.75;4.60;;;15.30;61.60;;;;;;5055739;28;20036;-66
2022/04/04 09:10:46;;;;;;;4.60;3.80;;;14.30;60.10;;;;;;5056012;28;20104;-66
2022/04/04 09:13:16;;;;;;;5.95;4.10;;;14.70;60.20;;;;;;5055737;28;20471;-66
2022/04/04 09:15:59;;;;;;;4.38;3.78;;;15.20;58.70;;;;;;5037825;28;20032;-66
2022/04/04 09:18:37;;;;;;;5.35;3.97;;;15.90;56.40;;;;;;5055541;28;20471;-68
2022/04/04 09:21:04;;;;;;;5.97;4.18;;;16.00;55.20;;;;;;5055654;28;20028;-67
2022/04/04 09:23:54;;;;;;;6.55;4.55;;;16.10;55.30;;;;;;5055774;28;20083;-67
2022/04/04 09:26:40;;;;;;;5.63;4.30;;;16.60;54.40;;;;;;5037697;28;20487;-67
2022/04/04 09:29:24;;;;;;;5.88;4.15;;;17.50;53.30;;;;;;5055883;28;20499;-66
2022/04/04 09:32:10;;;;;;;4.38;3.97;;;18.60;51.30;;;;;;5055486;28;20029;-66
2022/04/04 09:35:04;;;;;;;5.13;3.97;;;18.60;49.80;;;;;;5036755;28;20171;-66
2022/04/04 09:37:33;;;;;;;5.30;3.97;;;16.80;50.60;;;;;;5055850;28;20475;-66
2022/04/04 09:40:13;;;;;;;6.30;4.20;;;15.40;52.00;;;;;;5056108;28;20028;-66
2022/04/04 09:42:39;;;;;;;5.75;4.18;;;15.90;52.60;;;;;;5037733;28;20040;-66
2022/04/04 09:45:12;;;;;;;7.70;4.13;;;16.30;51.40;;;;;;5055524;28;20033;-66
2022/04/04 09:48:04;;;;;;;4.57;4.00;;;17.30;50.50;;;;;;5055493;28;20036;-67
2022/04/04 09:50:43;;;;;;;6.43;4.70;;;18.30;49.00;;;;;;5055260;28;20029;-67
2022/04/04 09:53:15;;;;;;;6.78;4.18;;;18.80;48.30;;;;;;5055250;28;20153;-67
2022/04/04 09:55:46;;;;;;;5.97;4.70;;;19.30;47.20;;;;;;5037305;28;20124;-66
2022/04/04 09:58:17;;;;;;;8.30;4.78;;;19.80;47.10;;;;;;5077163;23;20044;-66
2022/04/04 10:00:48;;;;;;;8.15;4.43;;;20.20;45.80;;;;;;5054904;28;20032;-66
2022/04/04 10:03:16;;;;;;;6.20;4.65;;;20.30;45.10;;;;;;5054853;28;20539;-66
2022/04/04 10:05:49;;;;;;;5.65;4.28;;;19.50;45.70;;;;;;5054590;28;20032;-66
2022/04/04 10:08:17;;;;;;;5.38;4.57;;;19.30;46.00;;;;;;5036652;28;20475;-66
2022/04/04 10:10:44;;;;;;;5.97;4.22;;;19.60;46.30;;;;;;5054588;28;20036;-65
2022/04/04 10:13:13;;;;;;;7.55;4.70;;;19.40;45.50;;;;;;5054226;28;20025;-65
2022/04/04 10:15:39;;;;;;;5.50;4.82;;;18.90;46.20;;;;;;5054742;28;20170;-65
2022/04/04 10:18:06;;;;;;;;;;;19.40;46.80;;;;;;5054366;28;20036;-66
2022/04/04 10:20:32;;;;;;;6.00;4.72;;;19.00;45.80;;;;;;5036356;28;19911;-65
2022/04/04 10:22:59;;;;;;;5.70;4.30;;;17.70;46.80;;;;;;5036180;28;20033;-66
2022/04/04 10:25:29;;;;;;;7.10;4.47;;;18.20;47.20;;;;;;5053976;28;20025;-67
2022/04/04 10:27:56;;;;;;;5.25;4.40;;;18.70;46.90;;;;;;5053713;28;20383;-66
2022/04/04 10:30:41;;;;;;;5.68;4.40;;;18.80;46.30;;;;;;5053906;28;20471;-66
2022/04/04 10:33:24;;;;;;;5.82;4.45;;;19.40;45.50;;;;;;5053885;28;20067;-67
2022/04/04 10:36:10;;;;;;;8.73;4.68;;;20.00;44.80;;;;;;5054307;28;20552;-66
2022/04/04 10:38:46;;;;;;;5.25;4.75;;;20.00;44.80;;;;;;5053625;28;20052;-65
2022/04/04 10:41:14;;;;;;;4.10;3.70;;;19.80;43.90;;;;;;5054076;28;20472;-66
2022/04/04 10:43:51;;;;;;;5.63;4.30;;;19.90;43.90;;;;;;5054054;28;20039;-65
2022/04/04 10:46:19;;;;;;;5.32;4.55;;;20.20;44.60;;;;;;5053907;28;20036;-66
2022/04/04 10:48:49;;;;;;;6.10;4.88;;;19.80;44.30;;;;;;5053888;28;20021;-65
2022/04/04 10:51:19;;;;;;;5.30;4.57;;;18.80;45.60;;;;;;5053959;28;20020;-65
2022/04/04 10:53:53;;;;;;;6.10;5.13;;;18.00;46.00;;;;;;5036766;28;20021;-65
2022/04/04 10:56:28;;;;;;;8.98;4.70;;;17.60;47.20;;;;;;5036627;28;20029;-66
2022/04/04 10:59:14;;;;;;;5.30;4.63;;;18.00;47.00;;;;;;5035701;28;20430;-67
2022/04/04 11:01:41;;;;;;;5.60;4.32;;;18.30;46.20;;;;;;5036551;28;20033;-66
2022/04/04 11:04:25;;;;;;;7.45;4.38;;;17.60;46.60;;;;;;5035513;28;20025;-66
2022/04/04 11:10:03;;;;;;;7.03;4.90;;;15.20;49.00;;;;;;5054342;28;20036;-67
2022/04/04 11:12:29;;;;;;;5.00;4.50;;;13.70;51.60;;;;;;5035699;28;20025;-65
2022/04/04 11:15:06;;;;;;;6.97;5.20;;;12.90;53.60;;;;;;5053657;28;20070;-66
2022/04/04 11:17:38;;;;;;;5.40;4.78;;;11.90;54.50;;;;;;5054182;28;20450;-66
2022/04/04 11:20:10;;;;;;;6.72;5.25;;;11.30;56.60;;;;;;5053003;28;20031;-67
2022/04/04 11:22:45;;;;;;;6.28;4.90;;;11.20;58.00;;;;;;5053076;28;20033;-66
2022/04/04 11:25:21;;;;;;;8.73;5.13;;;11.10;57.50;;;;;;5035196;28;20098;-65
2022/04/04 11:27:48;;;;;;;6.60;5.00;;;11.00;58.20;;;;;;5035309;28;20021;-66
2022/04/04 11:30:16;;;;;;;7.53;5.35;;;10.90;58.10;;;;;;5052742;28;20411;-65
2022/04/04 11:32:42;;;;;;;7.57;5.10;;;11.00;58.70;;;;;;5052577;28;20017;-65
2022/04/04 11:35:14;;;;;;;;;;;10.80;58.60;;;;;;5053424;28;20032;-65
2022/04/04 11:37:45;;;;;;;6.13;4.88;;;10.60;58.90;;;;;;5058088;28;19917;-66
2022/04/04 11:40:18;;;;;;;10.15;4.88;;;10.40;59.10;;;;;;5053919;28;20025;-66
2022/04/04 11:42:51;;;;;;;6.15;4.80;;;10.10;60.10;;;;;;5035073;28;20403;-66
2022/04/04 11:45:25;;;;;;;6.45;4.95;;;10.10;61.00;;;;;;5052756;28;20036;-66
2022/04/04 11:48:02;;;;;;;6.25;4.80;;;10.20;60.90;;;;;;5053134;28;20158;-66
2022/04/04 11:50:30;;;;;;;10.48;4.13;;;10.20;60.00;;;;;;5052866;28;20036;-65
2022/04/04 11:53:04;;;;;;;5.07;4.30;;;10.20;59.00;;;;;;5052822;28;20029;-66
2022/04/04 11:55:32;;;;;;;6.50;4.53;;;10.10;59.20;;;;;;5052777;28;20029;-65
2022/04/04 11:58:00;;;;;;;6.72;4.65;;;10.00;58.50;;;;;;5034519;28;20033;-65
2022/04/04 12:00:32;;;;;;;6.72;4.47;;;9.90;59.80;;;;;;5037142;28;20032;-64
2022/04/04 12:03:18;;;;;;;6.30;4.35;;;10.00;59.80;;;;;;5054263;28;20029;-65
2022/04/04 12:05:45;;;;;;;6.30;4.20;;;10.00;58.40;;;;;;5052966;28;20036;-65
2022/04/04 12:08:12;;;;;;;5.82;4.07;;;10.00;58.50;;;;;;5052905;28;20032;-67
2022/04/04 12:10:38;;;;;;;4.40;3.40;;;9.90;58.40;;;;;;5034860;28;20230;-66
2022/04/04 12:13:04;;;;;;;6.32;3.85;;;9.80;57.80;;;;;;5034636;28;20029;-66
2022/04/04 12:15:32;;;;;;;6.33;3.47;;;9.70;57.80;;;;;;5034422;28;20048;-65
2022/04/04 12:17:59;;;;;;;4.75;3.00;;;9.50;56.20;;;;;;5034565;28;20017;-66
2022/04/04 12:20:25;;;;;;;3.90;2.92;;;9.60;56.60;;;;;;5052552;28;20046;-66
2022/04/04 12:25:35;;;;;;;3.63;3.03;;;9.80;56.20;;;;;;5052596;28;20094;-66
2022/04/04 12:28:01;;;;;;;4.53;3.43;;;9.90;56.60;;;;;;5052297;28;20029;-66
2022/04/04 12:30:33;;;;;;;6.82;3.85;;;9.90;56.00;;;;;;5034597;28;20029;-65
2022/04/04 12:33:09;;;;;;;5.00;3.95;;;9.90;57.00;;;;;;5034159;28;20061;-66
2022/04/04 12:35:46;;;;;;;8.45;4.00;;;9.70;56.70;;;;;;5052540;28;20463;-65
2022/04/04 12:38:42;;;;;;;6.28;3.65;;;9.70;57.70;;;;;;5052316;28;20029;-66
2022/04/04 12:41:10;;;;;;;5.88;3.90;;;9.70;57.30;;;;;;5050404;28;20029;-65
2022/04/04 12:43:38;;;;;;;9.25;3.95;;;9.90;57.40;;;;;;5052459;28;20108;-64
2022/04/04 12:46:06;;;;;;;7.57;3.92;;;10.00;57.60;;;;;;5052630;28;20056;-65
2022/04/04 12:48:38;;;;;;;4.75;3.92;;;10.10;57.30;;;;;;5052674;28;20474;-65
2022/04/04 12:51:05;;;;;;;4.45;3.72;;;10.10;56.90;;;;;;5052525;28;20040;-65
2022/04/04 12:53:49;;;;;;;5.38;3.90;;;10.10;57.60;;;;;;5052308;28;20032;-66
2022/04/04 12:56:16;;;;;;;4.95;3.90;;;10.20;57.10;;;;;;5034350;28;20029;-66
2022/04/04 12:58:41;;;;;;;5.88;4.07;;;10.20;57.70;;;;;;5052173;28;20045;-66
2022/04/04 13:01:17;;;;;;;7.03;4.30;;;10.30;56.80;;;;;;5052256;28;20033;-66
2022/04/04 13:03:50;;;;;;;6.32;3.95;;;10.10;57.80;;;;;;5052547;28;20391;-65
2022/04/04 13:06:16;;;;;;;4.85;4.25;;;10.10;58.00;;;;;;5052530;28;20021;-67
2022/04/04 13:08:58;;;;;;;;;;;10.10;58.40;;;;;;5053629;28;20021;-65